Time;durP1;ratioP1;P1;durP2;ratioP2;P2;SDS_P1;SDS_P2;PMS_P1;PMS_P2;Temp;Humidity;BMP_temperature;BMP_pressure;BME280_temperature;BME280_humidity;BME280_pressure;Samples;Min_cycle;Max_cycle;Signal;HPM_P1;HPM_P2
2020/12/10 00:00:46;;;;;;;68.78;8.77;;;;;;;;;;5048118;28;20082;-47
2020/12/10 00:03:13;;;;;;;59.03;7.57;;;;;;;;;;5049982;28;20025;-47
2020/12/10 00:05:40;;;;;;;62.88;10.48;;;;;;;;;;5047358;28;20060;-45
2020/12/10 00:08:07;;;;;;;84.60;9.98;;;;;;;;;;5049462;28;20119;-46
2020/12/10 00:10:34;;;;;;;81.80;9.80;;;;;;;;;;5043194;28;20120;-47
2020/12/10 00:13:01;;;;;;;69.15;9.82;;;;;;;;;;5044930;28;20021;-45
2020/12/10 00:15:28;;;;;;;120.45;13.45;;;;;;;;;;5048363;28;20056;-47
2020/12/10 00:17:55;;;;;;;74.13;11.48;;;;;;;;;;5047629;28;20024;-51
2020/12/10 00:20:23;;;;;;;129.07;16.48;;;;;;;;;;5046561;28;20174;-54
2020/12/10 00:22:50;;;;;;;122.75;15.65;;;;;;;;;;5042328;28;20504;-42
2020/12/10 00:25:17;;;;;;;136.73;17.15;;;;;;;;;;5058177;28;20175;-44
2020/12/10 00:27:44;;;;;;;145.60;17.67;;;;;;;;;;5042298;28;20033;-45
2020/12/10 00:30:11;;;;;;;114.78;17.52;;;;;;;;;;5046114;28;20053;-46
2020/12/10 00:32:39;;;;;;;132.45;16.25;;;;;;;;;;5044510;28;20537;-53
2020/12/10 00:35:06;;;;;;;137.90;17.95;;;;;;;;;;5047527;28;20029;-54
2020/12/10 00:37:35;;;;;;;141.73;16.70;;;;;;;;;;5046943;28;20778;-56
2020/12/10 00:40:03;;;;;;;126.20;17.23;;;;;;;;;;5033426;28;20028;-52
2020/12/10 00:42:30;;;;;;;183.90;20.88;;;;;;;;;;5040866;28;20063;-53
2020/12/10 00:44:57;;;;;;;154.77;19.35;;;;;;;;;;5042830;28;20045;-52
2020/12/10 00:47:24;;;;;;;160.40;20.42;;;;;;;;;;5039242;28;20026;-50
2020/12/10 00:49:52;;;;;;;175.57;20.48;;;;;;;;;;5037680;28;20056;-48
2020/12/10 00:52:24;;;;;;;140.80;18.00;;;;;;;;;;5039992;28;20049;-52
2020/12/10 00:54:50;;;;;;;;;;;;;;;;;;5039324;28;20028;-51
2020/12/10 00:57:17;;;;;;;117.10;15.90;;;;;;;;;;5031629;28;19920;-47
2020/12/10 00:59:44;;;;;;;132.50;16.50;;;;;;;;;;5035758;28;20497;-47
2020/12/10 01:02:11;;;;;;;123.18;15.40;;;;;;;;;;5035077;28;20044;-48
2020/12/10 01:04:38;;;;;;;113.07;15.52;;;;;;;;;;5034930;28;20037;-48
2020/12/10 01:07:05;;;;;;;122.38;15.20;;;;;;;;;;5037285;28;20134;-48
2020/12/10 01:09:32;;;;;;;101.43;12.00;;;;;;;;;;5033521;28;20480;-48
2020/12/10 01:11:59;;;;;;;103.40;13.20;;;;;;;;;;5037961;28;20029;-49
2020/12/10 01:14:32;;;;;;;135.05;15.25;;;;;;;;;;5052811;28;20064;-49
2020/12/10 01:17:00;;;;;;;144.98;17.45;;;;;;;;;;5036062;28;20532;-47
2020/12/10 01:19:27;;;;;;;144.25;18.30;;;;;;;;;;5044342;28;20104;-53
2020/12/10 01:21:54;;;;;;;120.10;15.35;;;;;;;;;;5038974;28;20025;-51
2020/12/10 01:24:21;;;;;;;122.75;16.05;;;;;;;;;;5039653;28;20021;-50
2020/12/10 01:26:48;;;;;;;124.35;16.85;;;;;;;;;;5037454;28;20025;-47
2020/12/10 01:29:15;;;;;;;177.82;18.77;;;;;;;;;;5045922;28;20455;-50
2020/12/10 01:31:42;;;;;;;135.10;17.23;;;;;;;;;;5044254;28;20025;-44
2020/12/10 01:34:09;;;;;;;125.57;16.05;;;;;;;;;;5041896;28;20029;-49
2020/12/10 01:36:36;;;;;;;110.18;14.85;;;;;;;;;;5047232;28;20029;-49
2020/12/10 01:39:03;;;;;;;110.57;15.00;;;;;;;;;;5040310;28;20025;-46
2020/12/10 01:41:31;;;;;;;134.25;16.08;;;;;;;;;;5047094;28;20036;-46
2020/12/10 01:44:03;;;;;;;104.78;13.25;;;;;;;;;;5045225;28;20050;-47
2020/12/10 01:46:30;;;;;;;99.03;13.80;;;;;;;;;;5042503;28;20079;-48
2020/12/10 01:48:57;;;;;;;92.30;11.60;;;;;;;;;;5043038;28;20025;-49
2020/12/10 01:51:24;;;;;;;74.40;11.10;;;;;;;;;;5056600;28;20029;-46
2020/12/10 01:53:51;;;;;;;78.55;10.70;;;;;;;;;;5042309;28;20408;-50
2020/12/10 01:56:18;;;;;;;117.30;12.85;;;;;;;;;;5063981;28;20021;-46
2020/12/10 01:58:45;;;;;;;98.43;13.18;;;;;;;;;;5051140;28;20381;-50
2020/12/10 02:01:13;;;;;;;85.57;11.88;;;;;;;;;;5048846;28;20031;-45
2020/12/10 02:03:41;;;;;;;95.57;10.98;;;;;;;;;;5053727;28;20032;-44
2020/12/10 02:06:08;;;;;;;78.15;10.07;;;;;;;;;;5051246;28;20036;-51
2020/12/10 02:08:35;;;;;;;100.53;11.15;;;;;;;;;;5049494;28;20431;-48
2020/12/10 02:11:02;;;;;;;91.80;10.90;;;;;;;;;;5052038;28;20467;-49
2020/12/10 02:13:29;;;;;;;76.00;11.00;;;;;;;;;;5051862;28;20091;-48
2020/12/10 02:15:58;;;;;;;85.18;11.23;;;;;;;;;;5062291;28;20028;-50
2020/12/10 02:18:27;;;;;;;84.43;11.48;;;;;;;;;;5058174;28;20084;-49
2020/12/10 02:20:54;;;;;;;69.10;9.90;;;;;;;;;;5050267;28;20722;-44
2020/12/10 02:23:21;;;;;;;57.65;7.85;;;;;;;;;;5048294;28;20033;-45
2020/12/10 02:25:48;;;;;;;71.85;9.38;;;;;;;;;;5052072;28;20497;-48
2020/12/10 02:28:16;;;;;;;68.57;9.48;;;;;;;;;;5046333;28;20049;-48
2020/12/10 02:30:44;;;;;;;59.78;8.05;;;;;;;;;;5050633;28;20029;-44
2020/12/10 02:33:12;;;;;;;51.50;7.72;;;;;;;;;;5052613;28;20017;-49
2020/12/10 02:35:40;;;;;;;43.00;7.70;;;;;;;;;;5045784;28;20029;-45
2020/12/10 02:38:08;;;;;;;79.53;9.55;;;;;;;;;;5035071;28;20029;-53
2020/12/10 02:40:37;;;;;;;53.13;7.63;;;;;;;;;;5046270;28;20112;-48
2020/12/10 02:43:04;;;;;;;46.45;6.95;;;;;;;;;;5047390;28;20056;-46
2020/12/10 02:45:32;;;;;;;37.33;5.78;;;;;;;;;;5049442;28;20397;-46
2020/12/10 02:47:59;;;;;;;48.83;6.00;;;;;;;;;;5051046;28;20050;-46
2020/12/10 02:50:27;;;;;;;41.83;5.18;;;;;;;;;;5047238;28;20024;-49
2020/12/10 02:52:54;;;;;;;57.15;6.18;;;;;;;;;;5050363;28;20541;-47
2020/12/10 02:55:21;;;;;;;47.53;6.40;;;;;;;;;;5049986;28;20052;-46
2020/12/10 02:57:48;;;;;;;39.20;5.88;;;;;;;;;;5053314;28;20402;-48
2020/12/10 03:00:15;;;;;;;42.42;5.68;;;;;;;;;;5052938;28;20100;-51
2020/12/10 03:02:42;;;;;;;40.83;7.53;;;;;;;;;;5052857;28;20044;-48
2020/12/10 03:05:09;;;;;;;30.65;5.45;;;;;;;;;;5051996;28;20025;-49
2020/12/10 03:07:36;;;;;;;40.10;6.10;;;;;;;;;;5052124;28;20024;-47
2020/12/10 03:10:04;;;;;;;40.47;5.10;;;;;;;;;;5047590;28;20036;-49
2020/12/10 03:12:32;;;;;;;42.92;5.93;;;;;;;;;;5053516;28;20105;-53
2020/12/10 03:14:59;;;;;;;35.97;4.72;;;;;;;;;;5068636;28;20032;-53
2020/12/10 03:17:26;;;;;;;27.10;4.25;;;;;;;;;;5052477;28;20043;-46
2020/12/10 03:19:53;;;;;;;35.50;4.80;;;;;;;;;;5052980;28;20021;-50
2020/12/10 03:22:20;;;;;;;34.88;3.78;;;;;;;;;;5052845;28;20499;-53
2020/12/10 03:24:47;;;;;;;33.30;4.57;;;;;;;;;;5051859;28;20064;-50
2020/12/10 03:27:15;;;;;;;40.60;4.85;;;;;;;;;;5049861;28;20029;-50
2020/12/10 03:29:42;;;;;;;33.72;6.38;;;;;;;;;;5052452;28;20035;-49
2020/12/10 03:32:09;;;;;;;32.25;4.68;;;;;;;;;;5068547;28;20491;-45
2020/12/10 03:34:36;;;;;;;42.10;5.05;;;;;;;;;;5052488;28;20476;-47
2020/12/10 03:37:03;;;;;;;26.45;4.00;;;;;;;;;;5051637;28;20477;-47
2020/12/10 03:39:30;;;;;;;28.38;4.97;;;;;;;;;;5053084;28;20025;-49
2020/12/10 03:41:58;;;;;;;32.15;5.03;;;;;;;;;;5052381;28;20032;-48
2020/12/10 03:44:26;;;;;;;44.10;5.93;;;;;;;;;;5053365;28;20489;-48
2020/12/10 03:46:53;;;;;;;75.30;10.10;;;;;;;;;;5051807;28;20038;-46
2020/12/10 03:49:20;;;;;;;56.65;6.35;;;;;;;;;;5043929;28;20024;-45
2020/12/10 03:51:47;;;;;;;32.17;4.38;;;;;;;;;;5052175;28;20021;-46
2020/12/10 03:54:14;;;;;;;41.55;5.63;;;;;;;;;;5052155;28;20044;-45
2020/12/10 03:56:41;;;;;;;43.95;5.43;;;;;;;;;;5052475;28;20017;-47
2020/12/10 03:59:08;;;;;;;37.58;5.43;;;;;;;;;;5051268;28;20025;-46
2020/12/10 04:01:35;;;;;;;54.70;6.00;;;;;;;;;;5051935;28;20131;-43
2020/12/10 04:04:02;;;;;;;58.25;6.55;;;;;;;;;;5051606;28;20104;-42
2020/12/10 04:06:29;;;;;;;40.70;7.40;;;;;;;;;;5051630;28;20025;-49
2020/12/10 04:08:56;;;;;;;45.88;8.18;;;;;;;;;;5052157;28;20451;-47
2020/12/10 04:11:24;;;;;;;30.15;5.15;;;;;;;;;;5052419;28;20500;-48
2020/12/10 04:13:51;;;;;;;39.22;4.50;;;;;;;;;;5050444;28;20040;-42
2020/12/10 04:16:18;;;;;;;30.73;5.55;;;;;;;;;;5052181;28;20044;-47
2020/12/10 04:18:45;;;;;;;40.88;6.75;;;;;;;;;;5051300;28;20491;-44
2020/12/10 04:21:12;;;;;;;38.90;5.07;;;;;;;;;;5051297;28;20444;-47
2020/12/10 04:23:39;;;;;;;30.67;5.60;;;;;;;;;;5052376;28;20021;-50
2020/12/10 04:26:06;;;;;;;30.65;4.72;;;;;;;;;;5051583;28;20370;-50
2020/12/10 04:28:34;;;;;;;30.52;5.78;;;;;;;;;;5051594;28;20032;-51
2020/12/10 04:31:00;;;;;;;33.72;6.65;;;;;;;;;;5051547;28;20168;-50
2020/12/10 04:33:27;;;;;;;36.80;7.22;;;;;;;;;;5051937;28;20423;-50
2020/12/10 04:35:58;;;;;;;23.00;5.18;;;;;;;;;;5051423;28;20024;-49
2020/12/10 04:38:28;;;;;;;35.33;5.72;;;;;;;;;;5052014;28;20025;-49
2020/12/10 04:40:55;;;;;;;28.42;5.80;;;;;;;;;;5051353;28;20041;-50
2020/12/10 04:43:26;;;;;;;40.22;8.07;;;;;;;;;;5051930;28;20025;-52
2020/12/10 04:45:59;;;;;;;28.30;6.32;;;;;;;;;;5050586;28;20488;-49
2020/12/10 04:48:31;;;;;;;41.35;7.50;;;;;;;;;;5050961;28;20059;-50
2020/12/10 04:51:03;;;;;;;27.13;5.97;;;;;;;;;;5044546;28;20112;-50
2020/12/10 04:53:30;;;;;;;33.78;4.82;;;;;;;;;;5051395;28;20035;-50
2020/12/10 04:55:58;;;;;;;37.35;4.85;;;;;;;;;;5049469;28;20025;-51
2020/12/10 04:58:25;;;;;;;26.83;4.18;;;;;;;;;;5048677;28;20107;-52
2020/12/10 05:00:58;;;;;;;17.90;3.20;;;;;;;;;;5051261;28;20610;-47
2020/12/10 05:03:25;;;;;;;18.48;3.97;;;;;;;;;;5049782;28;20047;-47
2020/12/10 05:05:52;;;;;;;17.80;3.60;;;;;;;;;;5051701;28;20035;-50
2020/12/10 05:08:32;;;;;;;30.05;5.57;;;;;;;;;;5050817;28;20079;-52
2020/12/10 05:10:59;;;;;;;22.38;4.13;;;;;;;;;;5051504;28;20017;-52
2020/12/10 05:13:27;;;;;;;55.55;6.03;;;;;;;;;;5050723;28;20092;-43
2020/12/10 05:15:54;;;;;;;36.58;5.80;;;;;;;;;;5051204;28;20116;-50
2020/12/10 05:18:21;;;;;;;26.50;6.13;;;;;;;;;;5051026;28;20052;-48
2020/12/10 05:20:58;;;;;;;27.05;5.13;;;;;;;;;;5050898;28;20075;-51
2020/12/10 05:23:37;;;;;;;23.25;5.82;;;;;;;;;;5051229;28;20032;-51
2020/12/10 05:26:04;;;;;;;30.73;4.47;;;;;;;;;;5050369;28;20044;-46
2020/12/10 05:28:47;;;;;;;35.63;5.82;;;;;;;;;;5049849;28;20029;-48
2020/12/10 05:31:16;;;;;;;29.27;6.63;;;;;;;;;;5051104;28;20090;-51
2020/12/10 05:33:53;;;;;;;33.90;6.38;;;;;;;;;;5049920;28;20057;-46
2020/12/10 05:36:20;;;;;;;29.45;8.02;;;;;;;;;;5049555;28;20568;-49
2020/12/10 05:39:07;;;;;;;28.25;7.30;;;;;;;;;;5050174;28;20017;-47
2020/12/10 05:41:38;;;;;;;28.50;6.15;;;;;;;;;;5051303;28;20409;-49
2020/12/10 05:44:19;;;;;;;26.58;4.72;;;;;;;;;;5050003;28;20045;-48
2020/12/10 05:46:47;;;;;;;29.27;3.88;;;;;;;;;;5050896;28;20515;-47
2020/12/10 05:49:16;;;;;;;31.50;5.18;;;;;;;;;;5049802;28;20036;-51
2020/12/10 05:51:44;;;;;;;30.08;7.68;;;;;;;;;;5049928;28;20025;-51
2020/12/10 05:54:12;;;;;;;42.10;10.98;;;;;;;;;;5050403;28;20465;-49
2020/12/10 05:56:59;;;;;;;28.88;6.28;;;;;;;;;;5066119;28;20041;-51
2020/12/10 05:59:30;;;;;;;26.80;4.60;;;;;;;;;;5049799;28;20376;-45
2020/12/10 06:02:09;;;;;;;43.85;5.15;;;;;;;;;;5051013;28;20131;-48
2020/12/10 06:04:37;;;;;;;32.58;4.50;;;;;;;;;;5050354;28;20069;-45
2020/12/10 06:07:04;;;;;;;21.42;3.58;;;;;;;;;;5066144;28;20541;-45
2020/12/10 06:09:32;;;;;;;26.75;4.72;;;;;;;;;;5065738;28;20071;-45
2020/12/10 06:12:02;;;;;;;24.67;4.00;;;;;;;;;;5051083;28;20017;-51
2020/12/10 06:14:29;;;;;;;26.90;4.85;;;;;;;;;;5049677;28;20021;-47
2020/12/10 06:17:11;;;;;;;28.63;4.97;;;;;;;;;;5050282;28;20036;-52
2020/12/10 06:19:38;;;;;;;21.90;3.75;;;;;;;;;;5050458;28;20055;-46
2020/12/10 06:22:26;;;;;;;26.33;4.40;;;;;;;;;;5050536;28;20025;-46
2020/12/10 06:24:57;;;;;;;18.98;3.90;;;;;;;;;;5049977;28;20481;-50
2020/12/10 06:27:25;;;;;;;24.23;3.65;;;;;;;;;;5050502;28;20024;-52
2020/12/10 06:30:10;;;;;;;26.48;3.63;;;;;;;;;;5050350;28;20043;-49
2020/12/10 06:32:44;;;;;;;19.98;4.00;;;;;;;;;;5049278;28;20064;-43
2020/12/10 06:35:28;;;;;;;24.63;3.25;;;;;;;;;;5050436;28;20017;-46
2020/12/10 06:37:58;;;;;;;25.63;3.75;;;;;;;;;;5049440;28;20029;-46
2020/12/10 06:40:29;;;;;;;24.20;2.90;;;;;;;;;;5050816;28;20044;-46
2020/12/10 06:42:56;;;;;;;22.08;2.88;;;;;;;;;;5050685;28;20057;-46
2020/12/10 06:45:26;;;;;;;21.25;3.00;;;;;;;;;;5052904;28;20060;-46
2020/12/10 06:47:54;;;;;;;25.33;3.40;;;;;;;;;;5053129;28;20028;-47
2020/12/10 06:50:24;;;;;;;24.92;4.38;;;;;;;;;;5053459;28;20112;-46
2020/12/10 06:53:09;;;;;;;24.83;4.05;;;;;;;;;;5052548;28;20025;-45
2020/12/10 06:55:58;;;;;;;26.38;3.63;;;;;;;;;;5054006;28;20060;-46
2020/12/10 06:58:39;;;;;;;27.65;4.80;;;;;;;;;;5043820;28;20048;-45
2020/12/10 07:01:24;;;;;;;117.82;12.40;;;;;;;;;;5053990;28;20036;-46
2020/12/10 07:03:56;;;;;;;51.55;5.45;;;;;;;;;;5051268;28;20427;-47
2020/12/10 07:06:23;;;;;;;;;;;;;;;;;;5053201;28;20029;-47
2020/12/10 07:09:00;;;;;;;23.90;3.75;;;;;;;;;;5053402;28;19905;-47
2020/12/10 07:11:32;;;;;;;24.23;3.20;;;;;;;;;;5052948;28;20557;-49
2020/12/10 07:13:59;;;;;;;22.65;3.05;;;;;;;;;;5050907;28;20124;-47
2020/12/10 07:16:30;;;;;;;24.63;3.95;;;;;;;;;;5052483;28;20032;-46
2020/12/10 07:18:57;;;;;;;24.90;3.67;;;;;;;;;;5052756;28;20045;-49
2020/12/10 07:21:24;;;;;;;25.33;3.25;;;;;;;;;;5053604;28;20063;-47
2020/12/10 07:23:52;;;;;;;15.20;3.65;;;;;;;;;;5052619;28;20021;-45
2020/12/10 07:26:19;;;;;;;21.40;3.53;;;;;;;;;;5053137;28;20036;-49
2020/12/10 07:28:47;;;;;;;19.20;3.78;;;;;;;;;;5067881;28;20051;-49
2020/12/10 07:31:18;;;;;;;25.02;4.53;;;;;;;;;;5051689;28;20025;-51
2020/12/10 07:34:04;;;;;;;19.67;3.75;;;;;;;;;;5052802;28;20370;-44
2020/12/10 07:36:32;;;;;;;25.08;3.40;;;;;;;;;;5052984;28;20511;-47
2020/12/10 07:39:02;;;;;;;24.73;4.30;;;;;;;;;;5052820;28;20035;-45
2020/12/10 07:41:37;;;;;;;22.17;3.17;;;;;;;;;;5052017;28;20047;-43
2020/12/10 07:44:04;;;;;;;32.72;3.50;;;;;;;;;;5052299;28;20049;-48
2020/12/10 07:46:37;;;;;;;23.13;4.15;;;;;;;;;;5052310;28;20519;-50
2020/12/10 07:49:05;;;;;;;23.52;3.85;;;;;;;;;;5052202;28;20025;-47
2020/12/10 07:51:34;;;;;;;22.48;3.55;;;;;;;;;;5053047;28;20032;-47
2020/12/10 07:54:06;;;;;;;20.35;4.03;;;;;;;;;;5051735;28;20052;-43
2020/12/10 07:56:34;;;;;;;23.15;4.00;;;;;;;;;;5068022;28;20025;-48
2020/12/10 07:59:12;;;;;;;17.30;3.42;;;;;;;;;;5052832;28;20362;-45
2020/12/10 08:01:43;;;;;;;20.58;3.53;;;;;;;;;;5052084;28;20094;-45
2020/12/10 08:04:10;;;;;;;23.33;3.75;;;;;;;;;;5068098;28;20039;-46
2020/12/10 08:06:37;;;;;;;24.00;3.90;;;;;;;;;;5051522;28;20029;-49
2020/12/10 08:09:10;;;;;;;22.60;3.47;;;;;;;;;;5052521;28;20516;-42
2020/12/10 08:11:57;;;;;;;20.77;3.20;;;;;;;;;;5052296;28;20504;-50
2020/12/10 08:14:29;;;;;;;18.25;3.70;;;;;;;;;;5052665;28;20071;-49
2020/12/10 08:16:57;;;;;;;37.35;3.60;;;;;;;;;;5051701;28;20040;-48
2020/12/10 08:19:27;;;;;;;17.63;3.10;;;;;;;;;;5052576;28;20065;-46
2020/12/10 08:21:54;;;;;;;21.90;2.83;;;;;;;;;;5051747;28;20021;-47
2020/12/10 08:24:53;;;;;;;16.00;2.85;;;;;;;;;;5051269;28;20040;-52
2020/12/10 08:27:22;;;;;;;18.30;2.58;;;;;;;;;;5018133;28;20042;-46
2020/12/10 08:30:18;;;;;;;23.33;2.90;;;;;;;;;;5052202;28;20016;-48
2020/12/10 08:32:56;;;;;;;31.42;3.80;;;;;;;;;;5034236;28;20033;-46
2020/12/10 08:35:23;;;;;;;29.35;3.60;;;;;;;;;;5052132;28;20025;-45
2020/12/10 08:37:50;;;;;;;29.42;3.33;;;;;;;;;;5051628;28;20021;-46
2020/12/10 08:40:24;;;;;;;28.20;3.85;;;;;;;;;;5051207;28;20213;-51
2020/12/10 08:42:52;;;;;;;37.20;4.00;;;;;;;;;;5051552;28;20028;-47
2020/12/10 08:45:32;;;;;;;27.02;4.88;;;;;;;;;;5051804;28;20107;-46
2020/12/10 08:48:00;;;;;;;22.70;3.90;;;;;;;;;;5049821;28;20123;-49
2020/12/10 08:50:35;;;;;;;30.52;4.57;;;;;;;;;;5051154;28;20495;-46
2020/12/10 08:53:02;;;;;;;34.35;4.65;;;;;;;;;;5049980;28;20428;-45
2020/12/10 08:55:50;;;;;;;23.00;4.03;;;;;;;;;;5051898;28;20023;-47
2020/12/10 08:58:25;;;;;;;24.50;4.00;;;;;;;;;;5050862;28;20032;-46
2020/12/10 09:00:54;;;;;;;33.30;4.45;;;;;;;;;;5051408;28;20532;-46
2020/12/10 09:03:21;;;;;;;48.60;5.72;;;;;;;;;;5051275;28;20025;-47
2020/12/10 09:05:48;;;;;;;34.58;5.03;;;;;;;;;;5051135;28;20041;-45
2020/12/10 09:08:15;;;;;;;26.02;3.45;;;;;;;;;;5050746;28;20037;-43
2020/12/10 09:10:43;;;;;;;29.02;4.18;;;;;;;;;;5050800;28;20025;-47
2020/12/10 09:13:10;;;;;;;26.35;3.88;;;;;;;;;;5048318;28;20565;-47
2020/12/10 09:15:38;;;;;;;22.65;3.97;;;;;;;;;;5051001;28;20029;-47
2020/12/10 09:18:05;;;;;;;28.80;3.85;;;;;;;;;;5049019;28;20021;-45
2020/12/10 09:20:32;;;;;;;29.23;3.92;;;;;;;;;;5051181;28;20031;-47
2020/12/10 09:22:59;;;;;;;29.85;4.80;;;;;;;;;;5050900;28;20021;-48
2020/12/10 09:25:26;;;;;;;35.30;6.45;;;;;;;;;;5050149;28;20033;-47
2020/12/10 09:27:53;;;;;;;26.70;5.32;;;;;;;;;;5051230;28;20036;-50
2020/12/10 09:30:20;;;;;;;39.67;6.53;;;;;;;;;;5050197;28;20110;-48
2020/12/10 09:33:01;;;;;;;37.97;5.10;;;;;;;;;;5049912;28;20049;-46
2020/12/10 09:35:48;;;;;;;31.13;5.22;;;;;;;;;;5049372;28;20517;-50
2020/12/10 09:38:15;;;;;;;31.75;5.57;;;;;;;;;;5049512;28;20106;-49
2020/12/10 09:40:42;;;;;;;43.53;5.63;;;;;;;;;;5048841;28;20029;-46
2020/12/10 09:43:09;;;;;;;31.73;6.82;;;;;;;;;;5048322;28;20108;-50
2020/12/10 09:45:39;;;;;;;37.65;5.32;;;;;;;;;;5043923;28;20057;-45
2020/12/10 09:48:26;;;;;;;37.17;6.75;;;;;;;;;;5051053;28;20434;-45
2020/12/10 09:50:53;;;;;;;53.70;6.50;;;;;;;;;;5049776;28;20123;-46
2020/12/10 09:53:26;;;;;;;57.50;6.80;;;;;;;;;;5048480;28;20025;-45
2020/12/10 09:58:20;;;;;;;42.05;7.13;;;;;;;;;;5051703;28;20473;-46
2020/12/10 10:00:50;;;;;;;33.63;4.45;;;;;;;;;;5049234;28;20037;-47
2020/12/10 10:03:21;;;;;;;36.38;7.25;;;;;;;;;;5050523;28;20045;-48
2020/12/10 10:05:48;;;;;;;49.92;7.55;;;;;;;;;;5050052;28;20515;-50
2020/12/10 10:08:15;;;;;;;45.58;6.90;;;;;;;;;;5050690;28;20071;-46
2020/12/10 10:10:42;;;;;;;57.47;7.75;;;;;;;;;;5049269;28;20463;-49
2020/12/10 10:13:10;;;;;;;50.10;7.20;;;;;;;;;;5050550;28;20061;-47
2020/12/10 10:15:38;;;;;;;64.82;8.25;;;;;;;;;;5050433;28;20025;-44
2020/12/10 10:18:05;;;;;;;72.75;9.40;;;;;;;;;;5053920;28;20032;-49
2020/12/10 10:20:33;;;;;;;79.28;9.05;;;;;;;;;;5054916;28;20023;-46
2020/12/10 10:23:00;;;;;;;64.65;7.65;;;;;;;;;;5053766;28;20055;-52
2020/12/10 10:25:28;;;;;;;45.58;6.03;;;;;;;;;;5054646;28;20072;-51
2020/12/10 10:27:58;;;;;;;52.78;6.30;;;;;;;;;;5052713;28;20036;-51
2020/12/10 10:30:34;;;;;;;53.28;6.07;;;;;;;;;;5053029;28;20111;-50
2020/12/10 10:33:01;;;;;;;44.90;6.30;;;;;;;;;;5052007;28;20033;-47
2020/12/10 10:35:32;;;;;;;55.63;6.93;;;;;;;;;;5046319;28;20033;-53
2020/12/10 10:38:14;;;;;;;206.95;56.28;;;;;;;;;;5053359;28;20376;-54
2020/12/10 10:40:43;;;;;;;207.82;55.95;;;;;;;;;;5055154;28;20032;-54
2020/12/10 10:43:11;;;;;;;157.00;38.55;;;;;;;;;;5052295;28;20035;-51
2020/12/10 10:45:38;;;;;;;119.55;27.48;;;;;;;;;;5052318;28;20053;-53
2020/12/10 10:48:05;;;;;;;97.18;19.70;;;;;;;;;;5053167;28;20029;-49
2020/12/10 10:50:32;;;;;;;114.45;16.30;;;;;;;;;;5049182;28;20037;-53
2020/12/10 10:53:01;;;;;;;77.10;11.40;;;;;;;;;;5048597;28;20526;-59
2020/12/10 10:55:28;;;;;;;69.80;9.35;;;;;;;;;;5050157;28;20328;-60
2020/12/10 10:57:55;;;;;;;71.72;10.40;;;;;;;;;;5050131;28;20021;-54
2020/12/10 11:00:22;;;;;;;53.65;6.85;;;;;;;;;;5053098;28;20085;-60
2020/12/10 11:02:49;;;;;;;65.93;8.90;;;;;;;;;;5067802;28;20033;-53
2020/12/10 11:05:16;;;;;;;72.43;8.45;;;;;;;;;;5051530;28;20037;-57
2020/12/10 11:07:43;;;;;;;71.10;8.88;;;;;;;;;;5053573;28;20381;-58
2020/12/10 11:10:21;;;;;;;61.73;7.73;;;;;;;;;;5051997;28;20087;-64
2020/12/10 11:12:49;;;;;;;70.88;8.80;;;;;;;;;;5052726;28;20443;-55
2020/12/10 11:15:22;;;;;;;63.63;8.32;;;;;;;;;;5051127;28;20512;-60
2020/12/10 11:17:49;;;;;;;57.88;7.63;;;;;;;;;;5053462;28;20040;-59
2020/12/10 11:20:20;;;;;;;65.65;7.25;;;;;;;;;;5053025;28;20029;-51
2020/12/10 11:22:53;;;;;;;51.40;5.80;;;;;;;;;;5051017;28;20037;-51
2020/12/10 11:25:39;;;;;;;;;;;;;;;;;;5052728;28;20052;-52
2020/12/10 11:28:27;;;;;;;63.20;8.27;;;;;;;;;;5052030;28;19916;-51
2020/12/10 11:30:54;;;;;;;59.88;8.70;;;;;;;;;;5049381;28;20060;-52
2020/12/10 11:33:21;;;;;;;47.20;6.25;;;;;;;;;;5052104;28;20028;-56
2020/12/10 11:35:50;;;;;;;34.22;5.18;;;;;;;;;;5051554;28;20029;-54
2020/12/10 11:38:17;;;;;;;50.60;6.63;;;;;;;;;;5042388;28;20040;-52
2020/12/10 11:40:44;;;;;;;72.55;8.38;;;;;;;;;;5040986;28;20032;-43
2020/12/10 11:43:11;;;;;;;90.78;10.32;;;;;;;;;;5046185;28;20031;-50
2020/12/10 11:45:38;;;;;;;72.95;9.40;;;;;;;;;;5051932;28;20558;-49
2020/12/10 11:48:08;;;;;;;54.38;6.47;;;;;;;;;;5051666;28;20036;-52
2020/12/10 11:50:36;;;;;;;40.38;5.57;;;;;;;;;;5051765;28;20114;-53
2020/12/10 11:53:04;;;;;;;46.20;5.88;;;;;;;;;;5051513;28;20470;-54
2020/12/10 11:55:31;;;;;;;51.45;5.38;;;;;;;;;;5051935;28;20021;-48
2020/12/10 11:57:58;;;;;;;66.68;8.98;;;;;;;;;;5049869;28;20029;-60
2020/12/10 12:00:25;;;;;;;68.18;9.73;;;;;;;;;;5052528;28;20025;-66
2020/12/10 12:02:53;;;;;;;63.05;8.75;;;;;;;;;;5051748;28;20048;-61
2020/12/10 12:05:24;;;;;;;77.32;9.32;;;;;;;;;;5052049;28;20082;-55
2020/12/10 12:07:57;;;;;;;64.40;8.68;;;;;;;;;;5043240;28;20021;-49
2020/12/10 12:10:24;;;;;;;41.83;6.00;;;;;;;;;;5051552;28;20017;-53
2020/12/10 12:12:51;;;;;;;36.83;5.95;;;;;;;;;;5051731;28;20549;-54
2020/12/10 12:15:18;;;;;;;107.57;12.23;;;;;;;;;;5051316;28;20370;-49
2020/12/10 12:17:46;;;;;;;52.67;8.07;;;;;;;;;;5050753;28;20114;-55
2020/12/10 12:20:15;;;;;;;80.75;11.05;;;;;;;;;;5051753;28;20107;-53
2020/12/10 12:23:01;;;;;;;79.13;11.75;;;;;;;;;;5050367;28;20032;-58
2020/12/10 12:25:33;;;;;;;112.40;13.45;;;;;;;;;;5051894;28;20041;-52
2020/12/10 12:28:09;;;;;;;87.43;10.85;;;;;;;;;;5051686;28;20037;-52
2020/12/10 12:30:50;;;;;;;105.57;11.57;;;;;;;;;;5052029;28;20032;-54
2020/12/10 12:33:38;;;;;;;73.82;9.68;;;;;;;;;;5051519;28;20088;-55
2020/12/10 12:36:08;;;;;;;93.22;10.95;;;;;;;;;;5047391;28;20541;-57
2020/12/10 12:38:36;;;;;;;93.53;12.60;;;;;;;;;;5051307;28;20028;-55
2020/12/10 12:41:15;;;;;;;106.15;13.00;;;;;;;;;;5050063;28;20029;-58
2020/12/10 12:43:42;;;;;;;117.20;13.25;;;;;;;;;;5050794;28;20044;-53
2020/12/10 12:46:29;;;;;;;83.80;10.48;;;;;;;;;;5051398;28;20067;-51
2020/12/10 12:49:11;;;;;;;88.25;10.32;;;;;;;;;;5050947;28;20443;-53
2020/12/10 12:51:38;;;;;;;86.05;9.40;;;;;;;;;;5050241;28;20032;-44
2020/12/10 12:54:24;;;;;;;80.30;10.48;;;;;;;;;;5049762;28;20041;-52
2020/12/10 12:56:58;;;;;;;123.77;14.33;;;;;;;;;;5051390;28;20037;-60
2020/12/10 12:59:45;;;;;;;122.63;15.18;;;;;;;;;;5050339;28;20131;-48
2020/12/10 13:02:26;;;;;;;97.10;13.23;;;;;;;;;;5051274;28;20059;-57
2020/12/10 13:04:56;;;;;;;89.57;11.15;;;;;;;;;;5050887;28;20036;-55
2020/12/10 13:07:23;;;;;;;82.45;9.60;;;;;;;;;;5051332;28;20056;-55
2020/12/10 13:10:37;;;;;;;62.20;8.88;;;;;;;;;;5050717;28;20033;-52
2020/12/10 13:13:04;;;;;;;73.53;10.23;;;;;;;;;;5050932;28;20021;-59
2020/12/10 13:15:31;;;;;;;81.50;9.73;;;;;;;;;;5050987;28;20017;-50
2020/12/10 13:18:18;;;;;;;72.07;10.30;;;;;;;;;;5050825;28;20017;-58
2020/12/10 13:20:45;;;;;;;82.00;10.73;;;;;;;;;;5049624;28;20428;-54
2020/12/10 13:23:12;;;;;;;62.90;8.90;;;;;;;;;;5049579;28;20021;-54
2020/12/10 13:25:39;;;;;;;78.57;10.15;;;;;;;;;;5048552;28;20040;-56
2020/12/10 13:28:06;;;;;;;51.53;7.38;;;;;;;;;;5049959;28;20427;-58
2020/12/10 13:30:33;;;;;;;57.17;8.50;;;;;;;;;;5051152;28;20032;-54
2020/12/10 13:33:00;;;;;;;70.38;8.15;;;;;;;;;;5050228;28;20117;-48
2020/12/10 13:35:27;;;;;;;50.42;8.50;;;;;;;;;;5050667;28;20082;-53
2020/12/10 13:37:54;;;;;;;74.50;8.90;;;;;;;;;;5057481;28;20048;-54
2020/12/10 13:40:26;;;;;;;73.43;10.32;;;;;;;;;;5049477;28;20053;-55
2020/12/10 13:42:53;;;;;;;79.30;12.07;;;;;;;;;;5048923;28;20020;-45
2020/12/10 13:45:20;;;;;;;108.10;12.65;;;;;;;;;;5049379;28;20443;-53
2020/12/10 13:47:47;;;;;;;109.82;12.52;;;;;;;;;;5043351;28;20034;-48
2020/12/10 13:50:14;;;;;;;94.18;13.43;;;;;;;;;;5049130;28;20087;-59
2020/12/10 13:52:41;;;;;;;105.65;13.43;;;;;;;;;;5052902;28;20127;-52
2020/12/10 13:55:09;;;;;;;124.45;13.85;;;;;;;;;;5053268;28;20043;-54
2020/12/10 13:57:36;;;;;;;96.60;13.05;;;;;;;;;;5052926;28;20425;-52
2020/12/10 14:00:24;;;;;;;127.15;14.52;;;;;;;;;;5044901;28;20413;-53
2020/12/10 14:02:55;;;;;;;;;;;;;;;;;;5040003;28;20041;-56
2020/12/10 14:05:42;;;;;;;98.60;13.15;;;;;;;;;;5051272;28;20335;-53
2020/12/10 14:08:11;;;;;;;90.63;11.85;;;;;;;;;;5048734;28;20041;-56
2020/12/10 14:10:51;;;;;;;104.78;11.98;;;;;;;;;;5043580;28;20056;-51
2020/12/10 14:13:18;;;;;;;77.13;10.80;;;;;;;;;;5046049;28;20029;-56
2020/12/10 14:15:58;;;;;;;87.00;9.98;;;;;;;;;;5046569;28;20480;-49
2020/12/10 14:18:26;;;;;;;78.20;10.50;;;;;;;;;;5048954;28;20045;-56
2020/12/10 14:20:53;;;;;;;89.38;10.48;;;;;;;;;;5044337;28;20033;-55
2020/12/10 14:23:20;;;;;;;82.15;10.65;;;;;;;;;;5044751;28;20082;-54
2020/12/10 14:25:47;;;;;;;65.68;8.35;;;;;;;;;;5045831;28;20041;-55
2020/12/10 14:28:14;;;;;;;76.20;8.90;;;;;;;;;;5047468;28;20082;-50
2020/12/10 14:30:41;;;;;;;86.28;10.43;;;;;;;;;;5044716;28;20377;-57
2020/12/10 14:33:08;;;;;;;91.82;10.32;;;;;;;;;;5045251;28;20022;-51
2020/12/10 14:35:35;;;;;;;83.68;9.98;;;;;;;;;;5040652;28;20461;-55
2020/12/10 14:38:07;;;;;;;75.22;10.00;;;;;;;;;;5050131;28;20029;-58
2020/12/10 14:40:36;;;;;;;80.18;9.20;;;;;;;;;;5044319;28;20116;-52
2020/12/10 14:43:19;;;;;;;81.32;9.35;;;;;;;;;;5059840;28;20080;-58
2020/12/10 14:45:46;;;;;;;83.18;9.30;;;;;;;;;;5046909;28;20061;-61